Time;durP1;ratioP1;P1;durP2;ratioP2;P2;SDS_P1;SDS_P2;PMS_P1;PMS_P2;Temp;Humidity;BMP_temperature;BMP_pressure;BME280_temperature;BME280_humidity;BME280_pressure;Samples;Min_cycle;Max_cycle;Signal;HPM_P1;HPM_P2
2020/12/19 00:02:17;;;;;;;14.27;9.77;;;9.50;99.90;;;;;;5059996;28;20189;-75
2020/12/19 00:04:44;;;;;;;14.52;10.65;;;9.50;99.90;;;;;;5061509;28;20208;-75
2020/12/19 00:07:10;;;;;;;16.05;11.60;;;9.50;99.90;;;;;;5061213;28;20284;-75
2020/12/19 00:09:37;;;;;;;15.30;11.63;;;9.50;99.90;;;;;;5058490;28;20197;-74
2020/12/19 00:12:03;;;;;;;14.50;11.43;;;9.40;99.90;;;;;;5061804;28;20188;-74
2020/12/19 00:14:31;;;;;;;16.42;11.70;;;9.40;99.90;;;;;;5055335;28;20188;-74
2020/12/19 00:16:57;;;;;;;19.50;11.55;;;9.40;99.90;;;;;;5052547;28;20197;-76
2020/12/19 00:19:24;;;;;;;16.38;11.35;;;9.30;99.90;;;;;;5053790;28;20768;-73
2020/12/19 00:21:50;;;;;;;14.55;10.75;;;9.30;99.90;;;;;;5055189;28;20675;-74
2020/12/19 00:24:16;;;;;;;18.08;12.18;;;9.30;99.90;;;;;;5051290;28;20212;-73
2020/12/19 00:26:43;;;;;;;15.75;11.68;;;9.30;99.90;;;;;;5053959;28;20199;-75
2020/12/19 00:29:10;;;;;;;15.70;10.63;;;9.30;99.90;;;;;;5057279;28;20223;-76
2020/12/19 00:31:39;;;;;;;14.65;11.40;;;9.30;99.90;;;;;;5056422;28;20695;-75
2020/12/19 00:34:06;;;;;;;12.35;10.77;;;9.20;99.90;;;;;;5057655;28;20219;-75
2020/12/19 00:36:33;;;;;;;17.23;11.80;;;9.20;99.90;;;;;;5056179;28;20201;-75
2020/12/19 00:38:59;;;;;;;14.60;11.13;;;9.20;99.90;;;;;;5054378;28;20231;-74
2020/12/19 00:41:26;;;;;;;14.77;12.15;;;9.20;99.90;;;;;;5055884;28;20185;-74
2020/12/19 00:43:53;;;;;;;19.08;12.20;;;9.10;99.90;;;;;;5053886;28;20203;-75
2020/12/19 00:46:21;;;;;;;18.90;11.50;;;9.10;99.90;;;;;;5057571;28;20549;-73
2020/12/19 00:48:48;;;;;;;18.90;11.65;;;9.10;99.90;;;;;;5054887;28;20189;-74
2020/12/19 00:51:15;;;;;;;13.57;10.45;;;9.10;99.90;;;;;;5055138;28;20196;-74
2020/12/19 00:53:43;;;;;;;19.98;11.65;;;9.10;99.90;;;;;;5056689;28;20183;-74
2020/12/19 00:56:17;;;;;;;17.20;10.85;;;9.10;99.90;;;;;;5056830;28;20196;-75
2020/12/19 00:58:44;;;;;;;19.38;11.13;;;9.00;99.90;;;;;;5054409;28;20196;-73
2020/12/19 01:01:11;;;;;;;13.57;11.32;;;9.00;99.90;;;;;;5055077;28;20189;-72
2020/12/19 01:03:37;;;;;;;22.45;11.25;;;9.00;99.90;;;;;;5052794;28;20197;-74
2020/12/19 01:06:04;;;;;;;13.43;11.43;;;9.00;99.90;;;;;;5052634;28;20201;-72
2020/12/19 01:08:31;;;;;;;15.95;11.02;;;8.90;99.90;;;;;;5051931;28;20197;-73
2020/12/19 01:10:57;;;;;;;12.20;10.55;;;8.90;99.90;;;;;;5054829;28;20196;-73
2020/12/19 01:13:24;;;;;;;16.35;11.05;;;8.90;99.90;;;;;;5058004;28;20195;-73
2020/12/19 01:15:50;;;;;;;12.95;9.57;;;8.90;99.90;;;;;;5052846;28;20196;-75
2020/12/19 01:18:17;;;;;;;12.63;9.30;;;8.90;99.90;;;;;;5052897;28;20207;-75
2020/12/19 01:20:43;;;;;;;15.77;10.55;;;8.90;99.90;;;;;;5054283;28;20363;-72
2020/12/19 01:23:10;;;;;;;13.20;10.10;;;8.90;99.90;;;;;;5052881;28;20193;-73
2020/12/19 01:25:37;;;;;;;13.55;10.65;;;8.90;99.90;;;;;;5052946;28;20197;-74
2020/12/19 01:28:03;;;;;;;12.77;9.63;;;8.90;99.90;;;;;;5054838;28;20204;-74
2020/12/19 01:30:29;;;;;;;12.60;9.10;;;8.90;99.90;;;;;;5056059;28;20200;-73
2020/12/19 01:32:56;;;;;;;13.65;9.82;;;8.90;99.90;;;;;;5053178;28;20203;-74
2020/12/19 01:35:22;;;;;;;15.45;10.27;;;9.00;99.90;;;;;;5053503;28;20588;-75
2020/12/19 01:37:48;;;;;;;13.63;9.75;;;9.00;99.90;;;;;;5055370;28;20208;-73
2020/12/19 01:40:15;;;;;;;12.45;9.52;;;9.00;99.90;;;;;;5053551;28;20869;-75
2020/12/19 01:42:42;;;;;;;12.57;9.68;;;9.00;99.90;;;;;;5054445;28;20278;-74
2020/12/19 01:45:08;;;;;;;18.60;10.57;;;9.00;99.90;;;;;;5053904;28;20185;-75
2020/12/19 01:47:35;;;;;;;14.93;12.18;;;8.90;99.90;;;;;;5052191;28;20194;-73
2020/12/19 01:50:04;;;;;;;14.90;11.23;;;8.90;99.90;;;;;;5052394;28;20191;-74
2020/12/19 01:52:32;;;;;;;12.73;9.60;;;8.90;99.90;;;;;;5051506;28;20203;-73
2020/12/19 01:55:00;;;;;;;13.35;10.00;;;8.90;99.90;;;;;;5054209;28;20608;-74
2020/12/19 01:57:31;;;;;;;14.85;9.45;;;8.90;99.90;;;;;;5051329;28;20231;-75
2020/12/19 01:59:58;;;;;;;14.45;9.32;;;9.00;99.90;;;;;;5053758;28;20220;-73
2020/12/19 02:02:25;;;;;;;11.13;9.70;;;9.00;99.90;;;;;;5053958;28;20212;-72
2020/12/19 02:04:52;;;;;;;15.15;10.35;;;9.00;99.90;;;;;;5051194;28;20547;-74
2020/12/19 02:07:19;;;;;;;13.38;8.50;;;8.90;99.90;;;;;;5053312;28;20329;-75
2020/12/19 02:09:45;;;;;;;12.27;9.02;;;9.00;99.90;;;;;;5053177;28;20205;-74
2020/12/19 02:12:12;;;;;;;12.18;9.38;;;9.00;99.90;;;;;;5053941;28;20200;-73
2020/12/19 02:14:40;;;;;;;17.38;9.75;;;9.00;99.90;;;;;;5053323;28;20203;-75
2020/12/19 02:17:07;;;;;;;20.38;10.13;;;9.00;99.90;;;;;;5050920;28;20200;-73
2020/12/19 02:19:35;;;;;;;10.45;8.43;;;9.00;99.90;;;;;;5051169;28;20220;-73
2020/12/19 02:22:02;;;;;;;10.88;8.25;;;8.90;99.90;;;;;;5054073;28;20204;-74
2020/12/19 02:24:30;;;;;;;21.90;9.60;;;8.90;99.90;;;;;;5053525;28;20728;-75
2020/12/19 02:26:57;;;;;;;9.73;8.43;;;8.90;99.90;;;;;;5052279;28;20200;-75
2020/12/19 02:29:25;;;;;;;14.00;9.35;;;8.90;99.90;;;;;;5051843;28;20206;-74
2020/12/19 02:31:53;;;;;;;13.70;7.78;;;8.90;99.90;;;;;;5052068;28;20619;-75
2020/12/19 02:34:19;;;;;;;21.90;9.05;;;8.90;99.90;;;;;;5050594;28;20226;-72
2020/12/19 02:36:46;;;;;;;10.93;8.23;;;8.90;99.90;;;;;;5053698;28;20223;-74
2020/12/19 02:39:12;;;;;;;22.05;8.68;;;8.90;99.90;;;;;;5053719;28;20251;-75
2020/12/19 02:41:40;;;;;;;12.77;8.93;;;8.90;99.90;;;;;;5053254;28;20231;-73
2020/12/19 02:44:08;;;;;;;11.25;8.55;;;8.90;99.90;;;;;;5050033;28;20203;-73
2020/12/19 02:46:35;;;;;;;14.05;10.95;;;8.90;99.90;;;;;;5054137;28;20185;-74
2020/12/19 02:49:02;;;;;;;20.73;11.88;;;8.90;99.90;;;;;;5055175;28;20196;-75
2020/12/19 02:51:28;;;;;;;14.80;9.05;;;8.80;99.90;;;;;;5057494;28;20199;-74
2020/12/19 02:53:55;;;;;;;13.50;9.18;;;8.80;99.90;;;;;;5064054;28;20260;-74
2020/12/19 02:56:21;;;;;;;17.45;10.73;;;8.80;99.90;;;;;;5055554;28;20196;-74
2020/12/19 02:58:48;;;;;;;17.27;9.80;;;8.80;99.90;;;;;;5058406;28;20251;-75
2020/12/19 03:01:15;;;;;;;20.52;9.77;;;8.80;99.90;;;;;;5066516;28;20243;-73
2020/12/19 03:03:41;;;;;;;10.68;9.02;;;8.80;99.90;;;;;;5062198;28;20218;-74
2020/12/19 03:06:07;;;;;;;17.42;10.95;;;8.80;99.90;;;;;;5056495;28;20185;-73
2020/12/19 03:08:34;;;;;;;15.48;9.93;;;8.80;99.90;;;;;;5061636;28;20318;-73
2020/12/19 03:11:00;;;;;;;14.98;10.77;;;8.80;99.90;;;;;;5055411;28;20191;-75
2020/12/19 03:13:26;;;;;;;15.55;8.60;;;8.80;99.90;;;;;;5065910;28;21159;-75
2020/12/19 03:15:54;;;;;;;20.48;9.18;;;8.90;99.90;;;;;;5063612;28;20185;-73
2020/12/19 03:18:20;;;;;;;16.98;10.70;;;8.80;99.90;;;;;;5065197;28;20199;-74
2020/12/19 03:20:46;;;;;;;16.92;12.00;;;8.90;99.90;;;;;;5062144;28;20227;-75
2020/12/19 03:23:13;;;;;;;15.63;10.30;;;8.90;99.90;;;;;;5066334;28;20690;-73
2020/12/19 03:25:39;;;;;;;16.58;10.25;;;8.90;99.90;;;;;;5058307;28;20200;-74
2020/12/19 03:28:05;;;;;;;15.98;9.27;;;8.90;99.90;;;;;;5056413;28;20197;-75
2020/12/19 03:30:32;;;;;;;19.15;10.88;;;8.90;99.90;;;;;;5066912;28;20228;-73
2020/12/19 03:32:59;;;;;;;18.02;11.35;;;8.90;99.90;;;;;;5065728;28;20575;-74
2020/12/19 03:35:26;;;;;;;13.10;9.75;;;8.90;99.90;;;;;;5060094;28;20288;-75
2020/12/19 03:37:52;;;;;;;14.30;9.70;;;8.90;99.90;;;;;;5061987;28;20188;-75
2020/12/19 03:40:19;;;;;;;15.38;9.65;;;8.90;99.90;;;;;;5059502;28;20260;-75
2020/12/19 03:42:46;;;;;;;14.00;11.35;;;8.90;99.90;;;;;;5054108;28;20200;-74
2020/12/19 03:45:12;;;;;;;16.77;10.80;;;8.90;99.90;;;;;;5057585;28;20628;-75
2020/12/19 03:47:38;;;;;;;16.25;9.30;;;8.90;99.90;;;;;;5060847;28;20198;-73
2020/12/19 03:50:06;;;;;;;18.88;10.45;;;8.90;99.90;;;;;;5057945;28;20250;-73
2020/12/19 03:52:32;;;;;;;18.33;10.32;;;8.90;99.90;;;;;;5065128;28;20204;-74
2020/12/19 03:54:58;;;;;;;16.80;9.70;;;8.90;99.90;;;;;;5055708;28;20215;-73
2020/12/19 03:57:25;;;;;;;11.93;8.73;;;8.90;99.90;;;;;;5061169;28;20277;-73
2020/12/19 03:59:51;;;;;;;14.93;10.60;;;8.90;99.90;;;;;;5056981;28;20231;-74
2020/12/19 04:02:18;;;;;;;15.07;10.07;;;8.90;99.90;;;;;;5063969;28;20359;-75
2020/12/19 04:04:45;;;;;;;20.85;9.90;;;8.90;99.90;;;;;;5061938;28;20198;-74
2020/12/19 04:07:12;;;;;;;14.65;9.90;;;8.90;99.90;;;;;;5063845;28;20193;-73
2020/12/19 04:09:38;;;;;;;17.83;9.90;;;8.90;99.90;;;;;;5065157;28;20191;-74
2020/12/19 04:12:05;;;;;;;11.70;8.98;;;8.90;99.90;;;;;;5058811;28;20680;-74
2020/12/19 04:14:37;;;;;;;17.67;9.68;;;9.00;99.90;;;;;;5064167;28;20544;-74
2020/12/19 04:17:05;;;;;;;18.70;8.40;;;9.00;99.90;;;;;;5062566;28;20216;-73
2020/12/19 04:19:32;;;;;;;17.73;10.50;;;9.00;99.90;;;;;;5060575;28;20323;-75
2020/12/19 04:21:58;;;;;;;15.55;9.30;;;9.00;99.90;;;;;;5059769;28;20246;-74
2020/12/19 04:24:25;;;;;;;18.45;11.25;;;9.00;99.90;;;;;;5064693;28;20200;-75
2020/12/19 04:26:52;;;;;;;15.23;10.38;;;9.00;99.90;;;;;;5064148;28;20200;-74
2020/12/19 04:29:18;;;;;;;15.77;9.85;;;9.00;99.90;;;;;;5059651;28;20188;-75
2020/12/19 04:31:45;;;;;;;15.27;10.48;;;9.00;99.90;;;;;;5060446;28;20230;-73
2020/12/19 04:34:11;;;;;;;16.10;10.82;;;9.00;99.90;;;;;;5057572;28;20200;-75
2020/12/19 04:36:37;;;;;;;16.23;10.82;;;9.00;99.90;;;;;;5058256;28;20200;-74
2020/12/19 04:39:04;;;;;;;18.00;11.35;;;9.00;99.90;;;;;;5065267;28;20286;-75
2020/12/19 04:41:33;;;;;;;16.80;9.95;;;9.00;99.90;;;;;;5055492;28;20197;-74
2020/12/19 04:44:01;;;;;;;13.32;9.70;;;8.90;99.90;;;;;;5061528;28;20204;-75
2020/12/19 04:46:29;;;;;;;12.02;8.98;;;9.00;99.90;;;;;;5053030;28;20351;-74
2020/12/19 04:48:57;;;;;;;16.30;9.73;;;9.00;99.90;;;;;;5056602;28;20200;-74
2020/12/19 04:51:23;;;;;;;19.00;9.73;;;8.90;99.90;;;;;;5055154;28;20185;-73
2020/12/19 04:53:50;;;;;;;15.93;11.13;;;9.00;99.90;;;;;;5059972;28;20200;-73
2020/12/19 04:56:18;;;;;;;12.15;9.45;;;9.00;99.90;;;;;;5058621;28;20203;-73
2020/12/19 04:58:45;;;;;;;12.73;10.18;;;8.90;99.90;;;;;;5054700;28;20227;-75
2020/12/19 05:01:11;;;;;;;14.50;9.55;;;8.90;99.90;;;;;;5056787;28;20223;-75
2020/12/19 05:03:39;;;;;;;11.70;9.68;;;8.90;99.90;;;;;;5058889;28;20763;-73
2020/12/19 05:06:05;;;;;;;14.88;10.88;;;8.90;99.90;;;;;;5064049;28;20233;-73
2020/12/19 05:08:31;;;;;;;14.48;11.77;;;8.90;99.90;;;;;;5060892;28;20197;-74
2020/12/19 05:10:58;;;;;;;13.55;11.07;;;8.90;99.90;;;;;;5057931;28;20204;-74
2020/12/19 05:13:24;;;;;;;16.02;10.60;;;8.90;99.90;;;;;;5058934;28;20211;-75
2020/12/19 05:15:51;;;;;;;12.10;9.38;;;8.90;99.90;;;;;;5060692;28;20192;-74
2020/12/19 05:18:18;;;;;;;12.23;10.10;;;8.90;99.90;;;;;;5059919;28;20277;-75
2020/12/19 05:20:45;;;;;;;13.85;10.13;;;8.90;99.90;;;;;;5058672;28;20220;-74
2020/12/19 05:23:13;;;;;;;13.20;9.55;;;8.90;99.90;;;;;;5061281;28;20220;-74
2020/12/19 05:25:40;;;;;;;15.65;9.45;;;8.90;99.90;;;;;;5062685;28;20204;-73
2020/12/19 05:28:07;;;;;;;12.73;10.32;;;8.90;99.90;;;;;;5059135;28;20250;-74
2020/12/19 05:30:34;;;;;;;19.23;10.10;;;8.90;99.90;;;;;;5060293;28;20692;-74
2020/12/19 05:33:02;;;;;;;14.02;9.80;;;8.90;99.90;;;;;;5059504;28;20194;-75
2020/12/19 05:35:28;;;;;;;13.65;9.13;;;8.90;99.90;;;;;;5061224;28;20219;-75
2020/12/19 05:37:59;;;;;;;11.93;9.65;;;8.90;99.90;;;;;;5054313;28;20573;-74
2020/12/19 05:40:27;;;;;;;13.35;9.90;;;8.90;99.90;;;;;;5062193;28;20221;-75
2020/12/19 05:42:53;;;;;;;12.75;9.60;;;8.90;99.90;;;;;;5062677;28;20257;-76
2020/12/19 05:45:22;;;;;;;15.15;10.27;;;8.90;99.90;;;;;;5061173;28;20193;-74
2020/12/19 05:47:48;;;;;;;13.25;10.05;;;8.90;99.90;;;;;;5063033;28;20189;-73
2020/12/19 05:50:16;;;;;;;18.55;11.25;;;8.90;99.90;;;;;;5062969;28;20238;-73
2020/12/19 05:52:43;;;;;;;12.80;9.32;;;9.00;99.90;;;;;;5062002;28;20195;-74
2020/12/19 05:55:10;;;;;;;13.10;10.48;;;9.00;99.90;;;;;;5060690;28;20196;-74
2020/12/19 05:57:38;;;;;;;16.15;10.55;;;9.00;99.90;;;;;;5059028;28;20227;-75
2020/12/19 06:00:07;;;;;;;11.02;9.57;;;9.00;99.90;;;;;;5059217;28;20223;-75
2020/12/19 06:02:35;;;;;;;12.10;10.68;;;9.00;99.90;;;;;;5062617;28;20201;-74
2020/12/19 06:05:03;;;;;;;15.48;10.48;;;9.00;99.90;;;;;;5066559;28;20200;-75
2020/12/19 06:07:35;;;;;;;12.73;9.70;;;9.00;99.90;;;;;;5061908;28;20192;-75
2020/12/19 06:10:02;;;;;;;15.05;12.10;;;9.00;99.90;;;;;;5057088;28;20205;-73
2020/12/19 06:12:39;;;;;;;13.48;10.88;;;9.00;99.90;;;;;;5059662;28;20203;-75
2020/12/19 06:15:05;;;;;;;13.70;10.50;;;9.00;99.90;;;;;;5058037;28;20188;-74
2020/12/19 06:17:43;;;;;;;15.32;11.35;;;8.90;99.90;;;;;;5061536;28;20229;-74
2020/12/19 06:20:11;;;;;;;16.35;10.88;;;8.90;99.90;;;;;;5053755;28;20232;-74
2020/12/19 06:22:38;;;;;;;16.90;12.52;;;8.90;99.90;;;;;;5057606;28;20210;-73
2020/12/19 06:25:05;;;;;;;13.13;10.75;;;8.90;99.90;;;;;;5059932;28;20632;-73
2020/12/19 06:27:40;;;;;;;16.27;10.75;;;8.80;99.90;;;;;;5063443;28;20189;-74
2020/12/19 06:30:28;;;;;;;17.95;10.45;;;8.80;99.90;;;;;;5061078;28;20642;-75
2020/12/19 06:33:11;;;;;;;20.92;10.23;;;8.80;99.90;;;;;;5059614;28;20196;-74
2020/12/19 06:35:46;;;;;;;13.80;9.70;;;8.80;99.90;;;;;;5067818;28;20256;-75
2020/12/19 06:38:13;;;;;;;17.27;10.27;;;8.80;99.90;;;;;;5058587;28;20257;-73
2020/12/19 06:40:40;;;;;;;15.35;11.02;;;8.80;99.90;;;;;;5057861;28;20587;-74
2020/12/19 06:43:11;;;;;;;13.88;10.30;;;8.80;99.90;;;;;;5056415;28;20199;-71
2020/12/19 06:45:38;;;;;;;15.52;10.40;;;8.80;99.90;;;;;;5061362;28;20196;-74
2020/12/19 06:48:25;;;;;;;16.85;9.90;;;8.90;99.90;;;;;;5069113;28;20192;-73
2020/12/19 06:50:56;;;;;;;12.77;10.20;;;8.90;99.90;;;;;;5061431;28;20297;-74
2020/12/19 06:53:25;;;;;;;12.48;8.90;;;8.90;99.90;;;;;;5063274;28;20199;-72
2020/12/19 06:55:51;;;;;;;15.48;8.85;;;8.90;99.90;;;;;;5064759;28;20191;-73
2020/12/19 06:58:29;;;;;;;15.45;10.68;;;8.90;99.90;;;;;;5063734;28;20228;-74
2020/12/19 07:00:56;;;;;;;12.80;10.20;;;8.90;99.90;;;;;;5058844;28;20281;-72
2020/12/19 07:03:43;;;;;;;12.00;8.80;;;8.90;99.90;;;;;;5069073;28;20196;-73
2020/12/19 07:06:11;;;;;;;13.57;10.40;;;9.00;99.90;;;;;;5065439;28;20250;-74
2020/12/19 07:08:38;;;;;;;11.43;9.82;;;9.00;99.90;;;;;;5067894;28;20199;-74
2020/12/19 07:11:05;;;;;;;11.10;9.50;;;9.00;99.90;;;;;;5063602;28;20198;-74
2020/12/19 07:13:51;;;;;;;20.45;9.95;;;9.00;99.90;;;;;;5065023;28;20189;-73
2020/12/19 07:16:44;;;;;;;15.10;9.25;;;9.00;99.90;;;;;;5063302;28;20250;-74
2020/12/19 07:19:18;;;;;;;19.58;9.88;;;9.00;99.90;;;;;;5062193;28;20224;-72
2020/12/19 07:21:45;;;;;;;17.92;9.98;;;9.00;99.90;;;;;;5061861;28;20199;-73
2020/12/19 07:24:12;;;;;;;13.80;9.90;;;9.00;99.90;;;;;;5057975;28;20202;-73
2020/12/19 07:26:39;;;;;;;12.63;9.68;;;9.00;99.90;;;;;;5061846;28;20199;-75
2020/12/19 07:29:17;;;;;;;14.05;10.73;;;9.00;99.90;;;;;;5066321;28;20193;-74
2020/12/19 07:31:48;;;;;;;13.55;9.23;;;9.00;99.90;;;;;;5058771;28;20201;-73
2020/12/19 07:34:15;;;;;;;15.18;9.85;;;9.00;99.90;;;;;;5068658;28;20194;-74
2020/12/19 07:36:43;;;;;;;15.50;10.48;;;9.00;99.90;;;;;;5068424;28;20206;-74
2020/12/19 07:39:10;;;;;;;11.63;9.68;;;9.00;99.90;;;;;;5063991;28;20211;-73
2020/12/19 07:41:38;;;;;;;14.68;11.15;;;9.00;99.90;;;;;;5059567;28;20628;-73
2020/12/19 07:44:17;;;;;;;16.50;10.90;;;9.00;99.90;;;;;;5056936;28;20196;-73
2020/12/19 07:46:52;;;;;;;14.75;11.23;;;8.90;99.90;;;;;;5059114;28;20203;-74
2020/12/19 07:49:43;;;;;;;16.48;11.32;;;8.90;99.90;;;;;;5063804;28;20230;-75
2020/12/19 07:52:12;;;;;;;16.05;11.82;;;8.90;99.90;;;;;;5066482;28;20193;-74
2020/12/19 07:54:40;;;;;;;20.02;11.93;;;8.90;99.90;;;;;;5069237;28;20189;-73
2020/12/19 07:57:07;;;;;;;22.35;14.48;;;8.90;99.90;;;;;;5065346;28;20549;-75
2020/12/19 07:59:35;;;;;;;17.02;12.90;;;9.00;99.90;;;;;;5067271;28;20554;-74
2020/12/19 08:02:03;;;;;;;18.30;12.88;;;8.90;99.90;;;;;;5065185;28;20524;-73
2020/12/19 08:04:31;;;;;;;16.30;12.98;;;9.00;99.90;;;;;;5063399;28;20185;-73
2020/12/19 08:06:58;;;;;;;16.40;12.55;;;9.00;99.90;;;;;;5068023;28;20197;-74
2020/12/19 08:09:25;;;;;;;18.10;12.73;;;9.00;99.90;;;;;;5070550;28;20196;-73
2020/12/19 08:11:52;;;;;;;27.00;13.65;;;9.00;99.90;;;;;;5063519;28;20212;-74
2020/12/19 08:14:21;;;;;;;16.10;13.70;;;9.00;99.90;;;;;;5064217;28;20208;-73
2020/12/19 08:16:48;;;;;;;22.80;13.85;;;9.00;99.90;;;;;;5058642;28;20242;-73
2020/12/19 08:19:22;;;;;;;18.48;13.82;;;9.00;99.90;;;;;;5063242;28;20199;-73
2020/12/19 08:21:50;;;;;;;18.80;13.60;;;9.00;99.90;;;;;;5063470;28;20226;-72
2020/12/19 08:24:16;;;;;;;18.98;11.82;;;9.00;99.90;;;;;;5058597;28;20208;-74
2020/12/19 08:26:43;;;;;;;19.80;12.93;;;9.00;99.90;;;;;;5057351;28;20196;-73
2020/12/19 08:29:09;;;;;;;22.52;12.63;;;9.10;99.90;;;;;;5056210;28;20204;-72
2020/12/19 08:31:38;;;;;;;17.95;12.70;;;9.00;99.90;;;;;;5058079;28;20247;-74
2020/12/19 08:34:06;;;;;;;21.15;13.73;;;9.10;99.90;;;;;;5060508;28;20201;-72
2020/12/19 08:36:32;;;;;;;22.95;14.65;;;9.10;99.90;;;;;;5059297;28;20189;-73
2020/12/19 08:39:18;;;;;;;15.63;13.20;;;9.10;99.90;;;;;;5058078;28;20213;-74
2020/12/19 08:41:45;;;;;;;16.38;11.82;;;9.10;99.90;;;;;;5055190;28;20282;-73
2020/12/19 08:44:25;;;;;;;15.35;12.15;;;9.10;99.90;;;;;;5065967;28;20811;-74
2020/12/19 08:47:03;;;;;;;17.05;13.07;;;9.10;99.90;;;;;;5063721;28;20557;-74
2020/12/19 08:49:30;;;;;;;20.00;13.75;;;9.10;99.90;;;;;;5058047;28;20549;-74
2020/12/19 08:51:56;;;;;;;15.73;12.18;;;9.20;99.90;;;;;;5061685;28;20200;-74
2020/12/19 08:54:23;;;;;;;15.57;11.85;;;9.20;99.90;;;;;;5062104;28;20196;-74
2020/12/19 08:56:50;;;;;;;18.77;12.38;;;9.20;99.90;;;;;;5058762;28;20605;-74
2020/12/19 08:59:25;;;;;;;14.68;11.02;;;9.30;99.90;;;;;;5057283;28;20191;-74
2020/12/19 09:01:56;;;;;;;18.30;11.55;;;9.30;99.90;;;;;;5058467;28;20659;-74
2020/12/19 09:04:24;;;;;;;14.88;11.38;;;9.30;99.90;;;;;;5060312;28;20282;-73
2020/12/19 09:06:53;;;;;;;15.13;10.55;;;9.30;99.90;;;;;;5056782;28;20244;-73
2020/12/19 09:09:27;;;;;;;15.70;10.45;;;9.30;99.90;;;;;;5059036;28;20211;-74
2020/12/19 09:12:06;;;;;;;15.60;12.15;;;9.40;99.90;;;;;;5059066;28;20202;-73
2020/12/19 09:14:32;;;;;;;16.23;12.50;;;9.40;99.90;;;;;;5056191;28;20663;-75
2020/12/19 09:16:59;;;;;;;15.93;12.10;;;9.40;99.90;;;;;;5063840;28;20284;-74
2020/12/19 09:19:26;;;;;;;19.92;11.30;;;9.40;99.90;;;;;;5058871;28;20195;-75
2020/12/19 09:21:54;;;;;;;15.40;10.38;;;9.50;99.90;;;;;;5059560;28;20227;-74
2020/12/19 09:24:20;;;;;;;14.07;11.38;;;9.50;99.90;;;;;;5060352;28;20201;-74
2020/12/19 09:26:47;;;;;;;16.92;11.43;;;9.50;99.90;;;;;;5061902;28;20196;-74
2020/12/19 09:29:13;;;;;;;22.88;11.73;;;9.60;99.90;;;;;;5062181;28;20188;-73
2020/12/19 09:31:39;;;;;;;18.33;11.60;;;9.60;99.90;;;;;;5062136;28;20195;-73
2020/12/19 09:34:06;;;;;;;19.90;11.48;;;9.60;99.90;;;;;;5056146;28;20197;-74
2020/12/19 09:36:33;;;;;;;20.95;11.43;;;9.60;99.90;;;;;;5059370;28;20377;-75
2020/12/19 09:38:59;;;;;;;15.10;9.75;;;9.70;99.90;;;;;;5062662;28;20216;-74
2020/12/19 09:41:26;;;;;;;14.73;10.90;;;9.70;99.90;;;;;;5061251;28;20302;-75
2020/12/19 09:43:52;;;;;;;16.15;10.50;;;9.70;99.90;;;;;;5055777;28;20734;-73
2020/12/19 09:46:18;;;;;;;19.83;10.73;;;9.70;99.90;;;;;;5063558;28;20197;-75
2020/12/19 09:48:45;;;;;;;15.15;10.80;;;9.70;99.90;;;;;;5056911;28;20196;-73
2020/12/19 09:51:11;;;;;;;12.25;11.02;;;9.80;99.90;;;;;;5053757;28;20258;-73
2020/12/19 09:53:39;;;;;;;12.65;10.55;;;9.80;99.90;;;;;;5060477;28;20200;-73
2020/12/19 09:56:06;;;;;;;13.63;10.05;;;9.80;99.90;;;;;;5061510;28;20204;-72
2020/12/19 09:58:32;;;;;;;16.15;10.70;;;9.80;99.90;;;;;;5061362;28;20232;-73
2020/12/19 10:00:59;;;;;;;14.85;10.40;;;9.90;99.90;;;;;;5055028;28;20723;-75
2020/12/19 10:03:26;;;;;;;10.02;8.98;;;9.90;99.90;;;;;;5057009;28;20598;-73
2020/12/19 10:05:52;;;;;;;15.65;11.00;;;9.90;99.90;;;;;;5058793;28;20549;-75
2020/12/19 10:08:18;;;;;;;11.52;8.90;;;9.90;99.90;;;;;;5062932;28;20223;-73
2020/12/19 10:10:46;;;;;;;13.25;10.48;;;10.00;99.90;;;;;;5061063;28;20197;-74
2020/12/19 10:13:12;;;;;;;15.65;10.45;;;10.00;99.90;;;;;;5061950;28;20200;-75
2020/12/19 10:15:39;;;;;;;16.90;9.68;;;10.00;99.90;;;;;;5058628;28;20193;-75
2020/12/19 10:18:05;;;;;;;13.70;9.30;;;10.00;99.90;;;;;;5060216;28;20195;-72
2020/12/19 10:20:32;;;;;;;12.35;9.30;;;10.00;99.90;;;;;;5062092;28;20527;-74
2020/12/19 10:22:58;;;;;;;17.73;8.88;;;10.10;99.90;;;;;;5055359;28;21207;-76
2020/12/19 10:25:24;;;;;;;10.82;9.70;;;10.10;99.90;;;;;;5063341;28;20201;-74
2020/12/19 10:27:51;;;;;;;12.88;9.73;;;10.20;99.90;;;;;;5064817;28;20203;-72
2020/12/19 10:30:18;;;;;;;15.68;9.43;;;10.20;99.90;;;;;;5057559;28;20288;-73
2020/12/19 10:32:45;;;;;;;13.85;8.68;;;10.20;99.90;;;;;;5059807;28;20201;-75
2020/12/19 10:35:11;;;;;;;12.70;8.82;;;10.20;99.90;;;;;;5057325;28;20196;-74
2020/12/19 10:37:38;;;;;;;14.88;9.50;;;10.30;99.90;;;;;;5061454;28;20235;-75
2020/12/19 10:40:05;;;;;;;12.90;8.70;;;10.30;99.90;;;;;;5064051;28;20642;-74
2020/12/19 10:42:31;;;;;;;14.07;8.30;;;10.40;99.90;;;;;;5061775;28;20608;-74
2020/12/19 10:44:58;;;;;;;11.23;7.97;;;10.40;99.90;;;;;;5057777;28;20968;-75
2020/12/19 10:47:25;;;;;;;9.57;8.52;;;10.40;99.90;;;;;;5054997;28;20628;-74
2020/12/19 10:49:52;;;;;;;12.57;7.60;;;10.50;99.90;;;;;;5058942;28;20220;-73
2020/12/19 10:52:18;;;;;;;15.30;7.87;;;10.50;99.90;;;;;;5055442;28;20671;-74
2020/12/19 10:54:45;;;;;;;12.50;8.20;;;10.60;99.90;;;;;;5059628;28;20852;-73
2020/12/19 10:57:11;;;;;;;10.90;7.10;;;10.60;99.90;;;;;;5063405;28;20560;-72
2020/12/19 10:59:37;;;;;;;9.13;7.28;;;10.60;99.90;;;;;;5061043;28;20489;-74
2020/12/19 11:02:05;;;;;;;18.90;8.67;;;10.60;99.90;;;;;;5060797;28;20233;-74
2020/12/19 11:04:31;;;;;;;15.03;7.63;;;10.70;99.90;;;;;;5061386;28;20466;-73
2020/12/19 11:06:57;;;;;;;10.60;7.60;;;10.80;99.90;;;;;;5058688;28;20805;-75
2020/12/19 11:09:24;;;;;;;9.82;7.55;;;10.80;99.90;;;;;;5065827;28;20460;-75
2020/12/19 11:11:51;;;;;;;12.23;9.17;;;10.80;99.90;;;;;;5062959;28;20197;-73
2020/12/19 11:14:18;;;;;;;16.40;8.50;;;10.90;99.90;;;;;;5055801;28;20453;-73
2020/12/19 11:16:44;;;;;;;13.05;8.07;;;10.90;99.90;;;;;;5058867;28;20508;-73
2020/12/19 11:19:11;;;;;;;9.40;7.23;;;11.00;99.90;;;;;;5054203;28;20624;-72
2020/12/19 11:21:42;;;;;;;11.88;7.32;;;11.00;99.90;;;;;;5062512;28;20486;-74
2020/12/19 11:24:08;;;;;;;9.85;7.07;;;11.00;99.90;;;;;;5059853;28;20220;-73
2020/12/19 11:26:35;;;;;;;10.07;7.10;;;11.10;99.90;;;;;;5060953;28;20274;-75
2020/12/19 11:29:01;;;;;;;9.00;6.50;;;11.10;99.90;;;;;;5062167;28;20455;-74
2020/12/19 11:31:28;;;;;;;9.30;6.67;;;11.20;99.90;;;;;;5059501;28;20456;-73
2020/12/19 11:33:55;;;;;;;9.40;8.07;;;11.30;99.90;;;;;;5062769;28;20463;-73
2020/12/19 11:36:23;;;;;;;11.70;9.60;;;11.40;99.90;;;;;;5062483;28;20453;-74
2020/12/19 11:38:50;;;;;;;7.97;5.93;;;11.50;99.90;;;;;;5055573;28;20888;-75
2020/12/19 11:41:22;;;;;;;11.80;5.43;;;11.60;99.90;;;;;;5065222;28;20479;-74
2020/12/19 11:43:49;;;;;;;10.17;5.63;;;11.70;99.90;;;;;;5061544;28;20485;-74
2020/12/19 11:46:15;;;;;;;7.10;5.27;;;11.80;99.90;;;;;;5064882;28;20494;-74
2020/12/19 11:48:42;;;;;;;15.47;4.57;;;11.90;99.90;;;;;;5060148;28;20545;-73
2020/12/19 11:51:08;;;;;;;5.33;4.27;;;11.90;99.90;;;;;;5060782;28;20463;-72
2020/12/19 11:53:35;;;;;;;4.50;4.10;;;12.00;99.90;;;;;;5064184;28;20448;-72
2020/12/19 11:56:02;;;;;;;10.10;4.27;;;12.00;99.90;;;;;;5065553;28;20979;-73
2020/12/19 11:58:29;;;;;;;4.90;4.27;;;12.00;99.90;;;;;;5058806;28;20968;-74
2020/12/19 12:00:55;;;;;;;4.70;4.30;;;12.00;99.90;;;;;;5065636;28;20484;-72
2020/12/19 12:03:22;;;;;;;4.53;4.13;;;12.10;99.90;;;;;;5066747;28;20482;-72
2020/12/19 12:05:48;;;;;;;5.27;4.00;;;12.10;99.90;;;;;;5066099;28;20453;-72
2020/12/19 12:08:14;;;;;;;5.70;4.33;;;12.10;99.90;;;;;;5065253;28;20459;-75
2020/12/19 12:10:43;;;;;;;4.43;3.97;;;12.10;99.90;;;;;;5062988;28;20501;-73
2020/12/19 12:13:09;;;;;;;4.40;3.47;;;12.00;99.90;;;;;;5057284;28;20942;-72
2020/12/19 12:15:35;;;;;;;4.80;3.70;;;12.00;99.90;;;;;;5062290;28;20959;-72
2020/12/19 12:18:02;;;;;;;5.60;3.73;;;12.10;99.90;;;;;;5056086;28;20465;-74
2020/12/19 12:20:28;;;;;;;3.90;3.50;;;12.10;99.90;;;;;;5064203;28;20509;-73
2020/12/19 12:22:54;;;;;;;4.33;3.87;;;12.10;99.90;;;;;;5058528;28;20541;-73
2020/12/19 12:25:21;;;;;;;3.40;3.00;;;12.10;99.90;;;;;;5062202;28;20462;-73
2020/12/19 12:27:48;;;;;;;4.33;3.40;;;12.10;99.90;;;;;;5063054;28;20468;-73
2020/12/19 12:30:14;;;;;;;4.50;4.10;;;12.10;99.90;;;;;;5065695;28;20465;-73
2020/12/19 12:32:41;;;;;;;4.03;3.63;;;12.10;99.90;;;;;;5059280;28;20549;-73
2020/12/19 12:35:08;;;;;;;4.10;3.03;;;12.10;99.90;;;;;;5053267;28;20801;-75
2020/12/19 12:37:34;;;;;;;4.40;3.40;;;12.10;99.90;;;;;;5062057;28;20463;-73
2020/12/19 12:40:00;;;;;;;3.47;3.17;;;12.20;99.90;;;;;;5064666;28;20477;-73
2020/12/19 12:42:27;;;;;;;3.67;3.27;;;12.10;99.90;;;;;;5058731;28;20466;-73
2020/12/19 12:44:54;;;;;;;3.47;3.17;;;12.20;99.90;;;;;;5058976;28;20465;-72